Time;durP1;ratioP1;P1;durP2;ratioP2;P2;SDS_P1;SDS_P2;PMS_P1;PMS_P2;Temp;Humidity;BMP_temperature;BMP_pressure;BME280_temperature;BME280_humidity;BME280_pressure;Samples;Min_cycle;Max_cycle;Signal;HPM_P1;HPM_P2
2023/10/06 05:02:28;;;;;;;43.20;13.50;;;;;;;;;;5000779;23;20517;-73
2023/10/06 05:04:56;;;;;;;25.57;14.53;;;;;;;;;;4920306;29;20948;-73
2023/10/06 05:07:24;;;;;;;38.93;15.87;;;;;;;;;;4917838;29;20402;-73
2023/10/06 05:09:52;;;;;;;33.63;14.43;;;;;;;;;;4918269;29;20916;-73
2023/10/06 05:12:18;;;;;;;31.73;15.47;;;;;;;;;;4923328;29;20592;-72
2023/10/06 05:14:46;;;;;;;33.60;14.60;;;;;;;;;;4937173;29;20457;-72
2023/10/06 05:17:16;;;;;;;27.37;14.80;;;;;;;;;;4933827;29;20458;-70
2023/10/06 05:19:42;;;;;;;22.17;12.80;;;;;;;;;;4917791;29;20414;-70
2023/10/06 05:22:08;;;;;;;33.50;14.60;;;;;;;;;;4918372;29;20447;-70
2023/10/06 05:24:34;;;;;;;32.50;14.13;;;;;;;;;;4917514;29;20458;-70
2023/10/06 05:27:02;;;;;;;37.33;15.47;;;;;;;;;;4917320;29;20917;-70
2023/10/06 05:29:28;;;;;;;24.50;13.37;;;;;;;;;;4917767;29;20411;-70
2023/10/06 05:31:54;;;;;;;41.33;15.03;;;;;;;;;;4936324;29;20517;-70
2023/10/06 05:34:20;;;;;;;32.20;15.30;;;;;;;;;;4936231;29;20409;-70
2023/10/06 05:36:46;;;;;;;28.23;14.50;;;;;;;;;;4935949;29;20417;-70
2023/10/06 05:39:12;;;;;;;28.63;13.67;;;;;;;;;;4936485;29;20414;-71
2023/10/06 05:41:39;;;;;;;34.97;15.00;;;;;;;;;;4923455;29;20451;-71
2023/10/06 05:44:08;;;;;;;23.80;13.40;;;;;;;;;;4917051;29;20470;-72
2023/10/06 05:46:34;;;;;;;29.87;14.03;;;;;;;;;;4916894;29;20917;-71
2023/10/06 05:49:03;;;;;;;29.07;12.17;;;;;;;;;;4915715;29;20430;-71
2023/10/06 05:51:33;;;;;;;25.47;13.10;;;;;;;;;;4917226;29;20438;-71
2023/10/06 05:53:59;;;;;;;24.37;12.87;;;;;;;;;;4917138;29;20415;-71
2023/10/06 05:56:27;;;;;;;32.83;15.60;;;;;;;;;;4916679;29;20425;-71
2023/10/06 05:58:53;;;;;;;27.30;12.73;;;;;;;;;;4917026;29;20493;-71
2023/10/06 06:01:20;;;;;;;29.33;12.20;;;;;;;;;;4916765;29;20848;-71
2023/10/06 06:03:46;;;;;;;33.80;13.50;;;;;;;;;;4917876;29;20433;-71
2023/10/06 06:06:15;;;;;;;28.80;13.50;;;;;;;;;;4916702;29;20474;-71
2023/10/06 06:08:46;;;;;;;33.43;15.27;;;;;;;;;;4919309;29;20935;-71
2023/10/06 06:11:12;;;;;;;30.83;13.27;;;;;;;;;;4933609;29;20473;-71
2023/10/06 06:13:38;;;;;;;27.93;14.00;;;;;;;;;;4935648;29;20446;-71
2023/10/06 06:16:05;;;;;;;30.90;14.50;;;;;;;;;;4918067;29;20949;-70
2023/10/06 06:18:33;;;;;;;43.03;14.00;;;;;;;;;;4916977;29;20474;-70
2023/10/06 06:21:02;;;;;;;20.73;12.30;;;;;;;;;;4916988;29;20438;-69
2023/10/06 06:23:28;;;;;;;27.57;10.70;;;;;;;;;;4916840;29;20415;-70
2023/10/06 06:25:54;;;;;;;21.20;11.07;;;;;;;;;;4919393;29;20462;-71
2023/10/06 06:28:21;;;;;;;24.33;10.70;;;;;;;;;;4935410;29;20413;-71
2023/10/06 06:30:50;;;;;;;21.93;10.97;;;;;;;;;;4935378;29;20433;-69
2023/10/06 06:33:22;;;;;;;21.20;9.27;;;;;;;;;;4935544;29;20418;-71
2023/10/06 06:35:48;;;;;;;16.23;9.00;;;;;;;;;;4935393;29;20449;-71
2023/10/06 06:38:14;;;;;;;21.07;9.47;;;;;;;;;;4934958;29;20479;-70
2023/10/06 06:40:41;;;;;;;20.07;7.50;;;;;;;;;;4935541;29;20465;-70
2023/10/06 06:43:09;;;;;;;21.77;9.90;;;;;;;;;;4935964;29;20980;-71
2023/10/06 06:45:39;;;;;;;20.60;9.50;;;;;;;;;;4935685;29;20414;-70
2023/10/06 06:48:09;;;;;;;16.83;8.70;;;;;;;;;;4935073;29;20501;-71
2023/10/06 06:50:37;;;;;;;20.17;8.57;;;;;;;;;;4949151;29;20966;-71
2023/10/06 06:53:04;;;;;;;13.80;8.10;;;;;;;;;;4954448;28;20825;-70
2023/10/06 06:55:30;;;;;;;27.33;10.80;;;;;;;;;;4946979;28;20442;-70
2023/10/06 06:58:00;;;;;;;17.97;9.17;;;;;;;;;;4915862;29;20541;-70
2023/10/06 07:00:26;;;;;;;21.37;10.10;;;;;;;;;;4916013;29;20890;-70
2023/10/06 07:02:52;;;;;;;17.63;8.23;;;;;;;;;;4916332;29;20465;-71
2023/10/06 07:05:19;;;;;;;20.23;8.93;;;;;;;;;;4916074;29;20425;-71
2023/10/06 07:07:46;;;;;;;21.13;9.30;;;;;;;;;;4915895;29;20900;-70
2023/10/06 07:10:14;;;;;;;18.90;8.93;;;;;;;;;;4916484;29;20418;-70
2023/10/06 07:12:40;;;;;;;20.43;9.43;;;;;;;;;;4916945;29;20422;-71
2023/10/06 07:15:14;;;;;;;23.93;10.60;;;;;;;;;;4917042;29;20776;-70
2023/10/06 07:17:40;;;;;;;24.00;10.47;;;;;;;;;;4917132;29;20808;-71
2023/10/06 07:20:09;;;;;;;25.27;10.30;;;;;;;;;;4916323;29;20410;-70
2023/10/06 07:22:36;;;;;;;16.73;8.90;;;;;;;;;;4915788;29;20473;-74
2023/10/06 07:25:04;;;;;;;21.63;9.47;;;;;;;;;;4922948;29;20434;-73
2023/10/06 07:27:34;;;;;;;21.73;9.93;;;;;;;;;;4938114;29;20517;-77
2023/10/06 07:30:04;;;;;;;18.47;9.70;;;;;;;;;;4937453;29;20412;-78
2023/10/06 07:32:31;;;;;;;28.30;10.90;;;;;;;;;;4938056;29;20941;-77
2023/10/06 07:34:57;;;;;;;24.03;9.83;;;;;;;;;;4939733;29;20783;-77
2023/10/06 07:37:23;;;;;;;20.97;9.10;;;;;;;;;;4939443;29;20472;-76
2023/10/06 07:39:52;;;;;;;26.77;10.00;;;;;;;;;;4939714;29;20429;-78
2023/10/06 07:42:18;;;;;;;20.83;8.97;;;;;;;;;;4946233;29;20871;-78
2023/10/06 07:44:45;;;;;;;14.63;8.37;;;;;;;;;;4941971;29;20922;-76
2023/10/06 07:47:12;;;;;;;19.17;8.90;;;;;;;;;;4934282;29;20425;-76
2023/10/06 07:49:40;;;;;;;14.70;7.63;;;;;;;;;;4934967;29;20425;-76
2023/10/06 07:52:07;;;;;;;21.97;8.47;;;;;;;;;;4937529;29;20457;-77
2023/10/06 07:54:33;;;;;;;16.13;8.07;;;;;;;;;;4943063;29;20446;-77
2023/10/06 07:56:59;;;;;;;14.80;8.03;;;;;;;;;;4942252;29;20446;-76
2023/10/06 07:59:25;;;;;;;12.40;6.90;;;;;;;;;;4932689;29;20445;-77
2023/10/06 08:01:53;;;;;;;12.57;7.30;;;;;;;;;;4945061;29;20465;-77
2023/10/06 08:04:18;;;;;;;16.47;7.87;;;;;;;;;;4951016;29;20444;-79
2023/10/06 08:06:45;;;;;;;14.23;6.07;;;;;;;;;;4955784;28;20445;-76
2023/10/06 08:09:11;;;;;;;15.90;7.17;;;;;;;;;;4940016;28;20434;-77
2023/10/06 08:11:39;;;;;;;18.17;7.20;;;;;;;;;;4942005;28;20448;-77
2023/10/06 08:14:06;;;;;;;24.33;8.23;;;;;;;;;;4950588;28;20424;-77
2023/10/06 08:16:33;;;;;;;13.30;7.40;;;;;;;;;;4954414;28;20727;-79
2023/10/06 08:19:00;;;;;;;16.00;7.20;;;;;;;;;;4941003;29;20458;-78
2023/10/06 08:21:26;;;;;;;15.60;7.57;;;;;;;;;;4957068;29;20445;-77
2023/10/06 08:23:52;;;;;;;17.67;8.37;;;;;;;;;;4956344;29;20435;-78
2023/10/06 08:26:17;;;;;;;18.00;7.73;;;;;;;;;;4947636;29;20425;-78
2023/10/06 08:28:45;;;;;;;17.17;8.07;;;;;;;;;;4932806;29;20419;-78
2023/10/06 08:31:17;;;;;;;17.07;8.87;;;;;;;;;;4937420;29;20521;-78
2023/10/06 08:33:45;;;;;;;14.77;7.50;;;;;;;;;;4933781;29;20466;-77
2023/10/06 08:36:11;;;;;;;13.77;7.80;;;;;;;;;;4945418;29;20434;-78
2023/10/06 08:38:37;;;;;;;20.20;8.00;;;;;;;;;;4947506;29;20496;-78
2023/10/06 08:41:04;;;;;;;14.50;7.97;;;;;;;;;;4939776;29;20473;-77
2023/10/06 08:43:32;;;;;;;16.30;7.77;;;;;;;;;;4949431;29;20418;-77
2023/10/06 08:46:01;;;;;;;18.93;9.23;;;;;;;;;;4956519;29;20425;-76
2023/10/06 08:48:31;;;;;;;22.17;8.53;;;;;;;;;;4957783;29;20493;-77
2023/10/06 08:50:59;;;;;;;16.37;8.40;;;;;;;;;;4944828;29;20477;-77
2023/10/06 08:53:28;;;;;;;19.57;8.67;;;;;;;;;;4942392;29;20422;-77
2023/10/06 08:55:57;;;;;;;16.40;7.50;;;;;;;;;;4940392;29;20477;-77
2023/10/06 08:58:26;;;;;;;22.93;7.77;;;;;;;;;;4938211;29;20996;-77
2023/10/06 09:00:52;;;;;;;15.50;8.53;;;;;;;;;;4939829;29;20442;-77
2023/10/06 09:03:20;;;;;;;15.70;7.67;;;;;;;;;;4937665;29;20411;-77
2023/10/06 09:05:46;;;;;;;18.77;7.67;;;;;;;;;;4948120;29;20445;-79
2023/10/06 09:08:14;;;;;;;16.63;7.90;;;;;;;;;;4946187;29;20425;-77
2023/10/06 09:10:40;;;;;;;18.60;8.80;;;;;;;;;;4955636;29;20480;-77
2023/10/06 09:13:08;;;;;;;19.13;7.80;;;;;;;;;;4955918;29;20402;-77
2023/10/06 09:15:35;;;;;;;23.33;8.10;;;;;;;;;;4948454;29;20406;-77
2023/10/06 09:18:02;;;;;;;17.20;7.90;;;;;;;;;;4953591;29;20488;-76
2023/10/06 09:20:29;;;;;;;19.90;6.90;;;;;;;;;;4958975;29;20437;-77
2023/10/06 09:22:55;;;;;;;14.73;7.27;;;;;;;;;;4950519;29;20814;-78
2023/10/06 09:25:21;;;;;;;16.27;7.13;;;;;;;;;;4942311;29;20445;-78
2023/10/06 09:27:48;;;;;;;12.90;7.00;;;;;;;;;;4944307;29;20442;-78
2023/10/06 09:30:20;;;;;;;15.90;7.40;;;;;;;;;;4957957;28;20425;-80
2023/10/06 09:32:46;;;;;;;17.07;8.27;;;;;;;;;;4947205;29;20427;-79
2023/10/06 09:35:19;;;;;;;14.13;6.63;;;;;;;;;;4932157;29;20422;-79
2023/10/06 09:37:45;;;;;;;19.13;8.10;;;;;;;;;;4933489;29;20542;-79
2023/10/06 09:40:20;;;;;;;14.37;6.93;;;;;;;;;;4930279;29;20782;-78
2023/10/06 09:42:54;;;;;;;20.13;7.20;;;;;;;;;;4933391;29;20926;-77
2023/10/06 09:45:24;;;;;;;14.20;7.53;;;;;;;;;;4918453;29;20458;-72
2023/10/06 09:47:56;;;;;;;17.67;8.40;;;;;;;;;;4916505;29;20923;-72
2023/10/06 09:50:22;;;;;;;25.57;8.70;;;;;;;;;;4917551;29;20434;-73
2023/10/06 09:52:49;;;;;;;13.33;6.63;;;;;;;;;;4917046;29;20427;-73
2023/10/06 09:55:19;;;;;;;14.03;7.17;;;;;;;;;;4917297;29;20406;-73
2023/10/06 09:57:47;;;;;;;16.30;7.73;;;;;;;;;;4916523;29;20966;-72
2023/10/06 10:00:16;;;;;;;15.67;7.77;;;;;;;;;;4916630;29;20472;-71
2023/10/06 10:02:47;;;;;;;17.23;7.57;;;;;;;;;;4916940;29;20419;-72
2023/10/06 10:05:14;;;;;;;19.80;7.57;;;;;;;;;;4924778;29;20426;-73
2023/10/06 10:07:40;;;;;;;21.00;7.70;;;;;;;;;;4935307;29;20421;-73
2023/10/06 10:10:10;;;;;;;12.50;6.67;;;;;;;;;;4935624;29;20429;-72
2023/10/06 10:12:42;;;;;;;15.70;7.70;;;;;;;;;;4935363;28;20410;-73
2023/10/06 10:15:16;;;;;;;16.90;6.60;;;;;;;;;;4935456;29;20464;-73
2023/10/06 10:17:48;;;;;;;17.37;7.77;;;;;;;;;;4935607;29;20465;-73
2023/10/06 10:20:15;;;;;;;16.60;6.90;;;;;;;;;;4935354;29;20440;-71
2023/10/06 10:22:43;;;;;;;17.20;6.43;;;;;;;;;;4935156;29;20417;-71
2023/10/06 10:25:13;;;;;;;19.73;8.63;;;;;;;;;;4935449;29;20429;-71
2023/10/06 10:27:39;;;;;;;17.57;6.60;;;;;;;;;;4935083;29;20436;-71
2023/10/06 10:30:09;;;;;;;12.73;6.07;;;;;;;;;;4935465;29;20464;-72
2023/10/06 10:32:41;;;;;;;15.10;7.10;;;;;;;;;;4928952;29;20586;-72
2023/10/06 10:35:17;;;;;;;12.57;5.97;;;;;;;;;;4932843;29;20429;-71
2023/10/06 10:38:02;;;;;;;16.00;6.40;;;;;;;;;;4934964;29;20457;-74
2023/10/06 10:40:44;;;;;;;21.27;7.80;;;;;;;;;;4935211;29;20450;-73
2023/10/06 10:43:12;;;;;;;16.07;6.90;;;;;;;;;;4933647;29;20429;-73
2023/10/06 10:45:43;;;;;;;12.00;6.80;;;;;;;;;;4931172;29;20426;-73
2023/10/06 10:48:17;;;;;;;17.50;7.20;;;;;;;;;;4916919;29;20589;-72
2023/10/06 10:50:57;;;;;;;18.10;7.00;;;;;;;;;;4916516;29;20450;-72
2023/10/06 10:53:23;;;;;;;13.63;6.50;;;;;;;;;;4915985;29;20430;-73
2023/10/06 10:55:50;;;;;;;14.03;7.40;;;;;;;;;;4916146;29;20889;-72
2023/10/06 10:58:35;;;;;;;15.73;6.93;;;;;;;;;;4915449;29;20525;-72
2023/10/06 11:01:19;;;;;;;15.97;7.10;;;;;;;;;;4915023;29;20466;-72
2023/10/06 11:04:05;;;;;;;19.57;8.30;;;;;;;;;;4915895;29;20478;-72
2023/10/06 11:06:33;;;;;;;15.97;7.33;;;;;;;;;;4923717;29;20881;-72
2023/10/06 11:08:59;;;;;;;14.67;7.40;;;;;;;;;;4921671;29;20882;-73
2023/10/06 11:11:26;;;;;;;19.27;7.63;;;;;;;;;;4914700;29;20467;-72
2023/10/06 11:13:58;;;;;;;19.03;7.27;;;;;;;;;;4915934;29;20907;-73
2023/10/06 11:16:24;;;;;;;20.00;8.00;;;;;;;;;;4920289;29;20479;-72
2023/10/06 11:18:50;;;;;;;20.00;7.00;;;;;;;;;;4934242;29;20564;-72
2023/10/06 11:21:25;;;;;;;14.50;7.73;;;;;;;;;;4934504;29;20441;-72
2023/10/06 11:23:51;;;;;;;15.33;7.50;;;;;;;;;;4934422;29;20471;-72
2023/10/06 11:26:32;;;;;;;16.90;6.87;;;;;;;;;;4934199;29;20438;-73
2023/10/06 11:29:00;;;;;;;16.90;7.30;;;;;;;;;;4934575;29;20413;-73
2023/10/06 11:31:29;;;;;;;12.67;7.33;;;;;;;;;;4934789;29;20442;-72
2023/10/06 11:33:59;;;;;;;15.27;7.57;;;;;;;;;;4934215;29;20509;-73
2023/10/06 11:36:25;;;;;;;17.33;6.87;;;;;;;;;;4934106;29;20920;-73
2023/10/06 11:38:51;;;;;;;20.33;6.97;;;;;;;;;;4934304;29;20468;-72
2023/10/06 11:41:24;;;;;;;13.00;6.97;;;;;;;;;;4934277;29;20513;-73
2023/10/06 11:43:53;;;;;;;16.13;6.60;;;;;;;;;;4933971;29;20410;-73
2023/10/06 11:46:19;;;;;;;15.87;7.40;;;;;;;;;;4934179;29;20480;-73
2023/10/06 11:48:45;;;;;;;15.70;7.10;;;;;;;;;;4934142;29;20418;-73
2023/10/06 11:51:15;;;;;;;18.00;6.70;;;;;;;;;;4934204;29;20437;-73
2023/10/06 11:53:41;;;;;;;12.93;6.90;;;;;;;;;;4934100;29;21053;-73
2023/10/06 11:56:15;;;;;;;24.93;6.40;;;;;;;;;;4934225;29;20498;-73
2023/10/06 11:58:41;;;;;;;15.50;6.43;;;;;;;;;;4934585;29;20545;-73
2023/10/06 12:01:33;;;;;;;14.33;7.17;;;;;;;;;;4948625;28;21083;-74
2023/10/06 12:04:00;;;;;;;22.03;7.90;;;;;;;;;;4928701;29;20466;-77
2023/10/06 12:06:38;;;;;;;19.33;6.60;;;;;;;;;;4918999;29;20425;-75
2023/10/06 12:09:08;;;;;;;17.73;6.70;;;;;;;;;;4915867;29;20449;-75
2023/10/06 12:11:34;;;;;;;36.90;7.03;;;;;;;;;;4919097;29;20458;-75
2023/10/06 12:14:00;;;;;;;14.93;6.60;;;;;;;;;;4933579;29;20433;-75
2023/10/06 12:16:26;;;;;;;14.47;6.30;;;;;;;;;;4937227;29;20946;-75
2023/10/06 12:18:51;;;;;;;15.30;6.33;;;;;;;;;;4936396;29;20461;-75
2023/10/06 12:21:17;;;;;;;19.87;6.90;;;;;;;;;;4947488;29;20439;-74
2023/10/06 12:23:45;;;;;;;13.47;6.37;;;;;;;;;;4957044;29;20413;-74
2023/10/06 12:26:11;;;;;;;13.23;6.17;;;;;;;;;;4937349;28;20423;-75
2023/10/06 12:28:44;;;;;;;20.80;7.60;;;;;;;;;;4920384;29;20423;-75
2023/10/06 12:31:13;;;;;;;14.43;6.30;;;;;;;;;;4937691;29;20948;-74
2023/10/06 12:33:39;;;;;;;14.87;6.40;;;;;;;;;;4937503;29;20421;-73
2023/10/06 12:36:08;;;;;;;17.43;6.53;;;;;;;;;;4937309;29;20417;-73
2023/10/06 12:38:35;;;;;;;15.67;6.83;;;;;;;;;;4937395;29;20475;-74
2023/10/06 12:41:01;;;;;;;20.80;6.70;;;;;;;;;;4933548;29;20538;-74
2023/10/06 12:43:27;;;;;;;20.27;6.50;;;;;;;;;;4937323;29;20425;-74
2023/10/06 12:45:53;;;;;;;17.67;6.70;;;;;;;;;;4935811;29;20424;-74
2023/10/06 12:48:19;;;;;;;12.80;6.37;;;;;;;;;;4924970;29;20430;-74
2023/10/06 12:50:47;;;;;;;17.10;7.17;;;;;;;;;;4922548;29;20832;-74
2023/10/06 12:53:13;;;;;;;13.20;6.17;;;;;;;;;;4918678;29;20419;-75
2023/10/06 12:55:42;;;;;;;14.27;6.77;;;;;;;;;;4924787;29;20558;-74
2023/10/06 12:58:11;;;;;;;12.03;6.90;;;;;;;;;;4926516;29;20466;-73
2023/10/06 13:00:38;;;;;;;14.97;6.90;;;;;;;;;;4934975;29;20524;-74
2023/10/06 13:03:04;;;;;;;19.43;6.80;;;;;;;;;;4926643;29;20910;-74
2023/10/06 13:05:30;;;;;;;12.90;6.40;;;;;;;;;;4917771;29;20898;-74
2023/10/06 13:07:57;;;;;;;15.87;6.07;;;;;;;;;;4928061;29;20478;-73
2023/10/06 13:10:24;;;;;;;18.50;6.57;;;;;;;;;;4927602;29;20441;-73
2023/10/06 13:12:50;;;;;;;23.33;7.20;;;;;;;;;;4916894;29;20426;-73
2023/10/06 13:15:17;;;;;;;17.90;7.90;;;;;;;;;;4917866;29;20451;-73
2023/10/06 13:17:44;;;;;;;17.43;6.07;;;;;;;;;;4916698;29;20465;-74
2023/10/06 13:20:13;;;;;;;16.80;6.73;;;;;;;;;;4917779;29;20502;-73
2023/10/06 13:22:40;;;;;;;16.40;6.43;;;;;;;;;;4917189;29;20415;-74
2023/10/06 13:25:10;;;;;;;20.93;6.97;;;;;;;;;;4925005;29;20459;-73
2023/10/06 13:27:37;;;;;;;19.83;7.70;;;;;;;;;;4917458;29;20414;-74
2023/10/06 13:30:09;;;;;;;15.87;7.00;;;;;;;;;;4925115;29;20426;-74
2023/10/06 13:32:36;;;;;;;20.93;7.37;;;;;;;;;;4917653;29;20429;-73
2023/10/06 13:35:04;;;;;;;15.77;7.77;;;;;;;;;;4917638;29;20422;-75
2023/10/06 13:37:31;;;;;;;15.40;6.90;;;;;;;;;;4917172;29;20993;-73
2023/10/06 13:39:58;;;;;;;17.57;5.63;;;;;;;;;;4917034;29;20423;-74
2023/10/06 13:42:24;;;;;;;14.93;6.77;;;;;;;;;;4923713;29;20631;-74
2023/10/06 13:44:50;;;;;;;14.80;7.33;;;;;;;;;;4917188;29;20458;-74
2023/10/06 13:47:21;;;;;;;16.40;7.00;;;;;;;;;;4916995;29;20849;-74
2023/10/06 13:49:53;;;;;;;22.40;7.53;;;;;;;;;;4928413;29;20425;-74
2023/10/06 13:52:18;;;;;;;17.60;7.93;;;;;;;;;;4935745;29;20432;-74
2023/10/06 13:54:44;;;;;;;16.60;6.90;;;;;;;;;;4935692;29;20533;-73
2023/10/06 13:57:10;;;;;;;21.60;7.60;;;;;;;;;;4935442;29;20426;-73
2023/10/06 13:59:42;;;;;;;13.77;7.00;;;;;;;;;;4935415;29;20445;-73
2023/10/06 14:02:09;;;;;;;17.67;7.97;;;;;;;;;;4917697;29;20837;-73
2023/10/06 14:04:36;;;;;;;12.47;6.83;;;;;;;;;;4918834;29;20954;-72
2023/10/06 14:07:05;;;;;;;17.40;7.03;;;;;;;;;;4917793;29;20898;-73
2023/10/06 14:09:31;;;;;;;14.47;6.40;;;;;;;;;;4917522;29;20426;-73
2023/10/06 14:11:57;;;;;;;16.50;7.13;;;;;;;;;;4918518;29;20939;-74
2023/10/06 14:17:16;;;;;;;15.10;6.70;;;;;;;;;;4916608;29;20481;-74
2023/10/06 14:19:42;;;;;;;19.00;6.70;;;;;;;;;;4930464;29;20858;-73
2023/10/06 14:22:08;;;;;;;21.47;6.63;;;;;;;;;;4935751;29;20579;-73
2023/10/06 14:24:36;;;;;;;17.87;8.00;;;;;;;;;;4926994;29;20417;-73
2023/10/06 14:27:03;;;;;;;17.37;7.10;;;;;;;;;;4935745;29;20410;-73
2023/10/06 14:29:30;;;;;;;13.57;6.73;;;;;;;;;;4935547;29;20445;-72
2023/10/06 14:32:09;;;;;;;13.83;6.93;;;;;;;;;;4933608;29;20801;-73
2023/10/06 14:37:36;;;;;;;17.73;8.13;;;;;;;;;;4929930;29;20504;-73
2023/10/06 14:46:00;;;;;;;17.00;8.07;;;;;;;;;;4874741;29;20451;-73
2023/10/06 14:48:29;;;;;;;15.07;7.20;;;;;;;;;;4926719;29;20452;-73
2023/10/06 14:50:56;;;;;;;12.40;5.93;;;;;;;;;;4932022;29;20896;-73
2023/10/06 14:53:25;;;;;;;23.87;7.50;;;;;;;;;;4932675;29;20453;-73
2023/10/06 14:55:51;;;;;;;13.87;6.70;;;;;;;;;;4937196;29;20421;-72
2023/10/06 14:58:17;;;;;;;13.50;6.93;;;;;;;;;;4938512;29;20467;-72
2023/10/06 15:00:43;;;;;;;20.63;6.57;;;;;;;;;;4930971;29;20458;-73
2023/10/06 15:03:09;;;;;;;20.30;6.80;;;;;;;;;;4915699;29;20489;-73
2023/10/06 15:05:36;;;;;;;17.30;6.40;;;;;;;;;;4935460;29;20600;-74
2023/10/06 15:08:03;;;;;;;13.20;6.43;;;;;;;;;;4934810;29;20446;-74
2023/10/06 15:10:29;;;;;;;21.80;7.00;;;;;;;;;;4938180;29;20456;-72
2023/10/06 15:12:59;;;;;;;13.80;6.30;;;;;;;;;;4935110;29;20431;-73
2023/10/06 15:15:25;;;;;;;14.93;6.27;;;;;;;;;;4944312;28;20440;-73
2023/10/06 15:17:55;;;;;;;19.30;7.60;;;;;;;;;;4945271;29;20512;-72
2023/10/06 15:20:22;;;;;;;18.07;6.90;;;;;;;;;;4953629;28;20432;-72
2023/10/06 15:22:51;;;;;;;16.87;7.00;;;;;;;;;;4952664;29;20468;-72
2023/10/06 15:25:19;;;;;;;22.40;6.40;;;;;;;;;;4953919;28;20472;-72
2023/10/06 15:27:47;;;;;;;16.83;6.50;;;;;;;;;;4953345;28;20425;-72
2023/10/06 15:30:16;;;;;;;17.37;6.27;;;;;;;;;;4922260;28;20443;-73
2023/10/06 15:32:43;;;;;;;14.40;5.80;;;;;;;;;;4915321;29;20514;-73
2023/10/06 15:35:09;;;;;;;21.00;6.37;;;;;;;;;;4927550;29;20429;-73
2023/10/06 15:37:35;;;;;;;18.30;7.20;;;;;;;;;;4934260;29;20957;-72
2023/10/06 15:40:02;;;;;;;21.30;6.70;;;;;;;;;;4934543;29;20409;-72
2023/10/06 15:42:37;;;;;;;18.87;6.80;;;;;;;;;;4934145;29;20484;-72
2023/10/06 15:45:03;;;;;;;18.07;7.07;;;;;;;;;;4937654;29;20433;-72
2023/10/06 15:47:30;;;;;;;21.77;7.83;;;;;;;;;;4938002;29;20406;-72
2023/10/06 15:49:56;;;;;;;15.93;5.90;;;;;;;;;;4938163;29;20417;-72
2023/10/06 15:52:27;;;;;;;14.87;5.53;;;;;;;;;;4937834;29;20808;-72
2023/10/06 15:54:53;;;;;;;12.60;5.50;;;;;;;;;;4937931;29;20413;-71
2023/10/06 15:57:20;;;;;;;14.43;5.70;;;;;;;;;;4937402;29;20422;-72
2023/10/06 15:59:46;;;;;;;12.47;5.77;;;;;;;;;;4937744;29;20899;-72
2023/10/06 16:02:13;;;;;;;14.30;5.83;;;;;;;;;;4932884;29;20549;-72
2023/10/06 16:04:40;;;;;;;12.73;6.27;;;;;;;;;;4918759;29;20929;-72
2023/10/06 16:07:09;;;;;;;12.70;5.53;;;;;;;;;;4918504;29;20914;-72
2023/10/06 16:09:35;;;;;;;16.70;6.10;;;;;;;;;;4918912;29;20501;-72
2023/10/06 16:12:01;;;;;;;15.20;7.07;;;;;;;;;;4918465;29;20839;-71
2023/10/06 16:14:28;;;;;;;18.20;5.93;;;;;;;;;;4918716;29;20479;-71
2023/10/06 16:16:55;;;;;;;14.83;6.10;;;;;;;;;;4918415;29;20915;-71
2023/10/06 16:19:21;;;;;;;16.00;5.97;;;;;;;;;;4918798;29;20488;-71
2023/10/06 16:21:49;;;;;;;13.57;6.87;;;;;;;;;;4928394;29;20540;-71
2023/10/06 16:24:17;;;;;;;20.77;6.50;;;;;;;;;;4937685;29;20921;-71
2023/10/06 16:26:43;;;;;;;16.23;6.57;;;;;;;;;;4937651;29;20409;-72
2023/10/06 16:29:11;;;;;;;17.73;6.50;;;;;;;;;;4928325;29;20896;-71
2023/10/06 16:31:37;;;;;;;12.63;6.40;;;;;;;;;;4918643;29;20461;-71
2023/10/06 16:34:03;;;;;;;15.50;6.30;;;;;;;;;;4918691;29;20922;-71
2023/10/06 16:36:29;;;;;;;16.10;6.13;;;;;;;;;;4918517;29;20442;-72
2023/10/06 16:38:55;;;;;;;21.60;6.60;;;;;;;;;;4918570;29;20469;-72
2023/10/06 16:41:21;;;;;;;13.27;5.97;;;;;;;;;;4918360;29;20430;-72
2023/10/06 16:43:48;;;;;;;12.73;6.03;;;;;;;;;;4918324;29;20434;-72
2023/10/06 16:46:16;;;;;;;22.57;6.97;;;;;;;;;;4918314;29;20417;-72
2023/10/06 16:48:42;;;;;;;14.27;6.13;;;;;;;;;;4918382;29;20963;-72
2023/10/06 16:51:09;;;;;;;13.90;6.80;;;;;;;;;;4918255;29;20585;-72
2023/10/06 16:53:36;;;;;;;17.60;6.27;;;;;;;;;;4918243;29;20419;-72
2023/10/06 16:56:02;;;;;;;15.77;6.63;;;;;;;;;;4917439;29;20446;-71
2023/10/06 16:58:29;;;;;;;10.63;5.73;;;;;;;;;;4917928;29;20948;-71
2023/10/06 17:00:56;;;;;;;18.50;7.00;;;;;;;;;;4918137;29;20541;-72
2023/10/06 17:03:24;;;;;;;16.90;6.53;;;;;;;;;;4918405;29;20435;-72
2023/10/06 17:05:50;;;;;;;18.20;7.00;;;;;;;;;;4918320;29;20461;-72
2023/10/06 17:08:16;;;;;;;12.77;5.33;;;;;;;;;;4917936;29;20418;-72
2023/10/06 17:10:44;;;;;;;12.20;6.67;;;;;;;;;;4919795;29;20477;-72
2023/10/06 17:13:17;;;;;;;21.60;7.93;;;;;;;;;;4917959;29;20836;-72
2023/10/06 17:15:43;;;;;;;13.87;6.70;;;;;;;;;;4926100;29;20482;-73
2023/10/06 17:18:09;;;;;;;17.97;6.40;;;;;;;;;;4917754;29;20462;-72
2023/10/06 17:20:35;;;;;;;12.83;6.43;;;;;;;;;;4917835;29;20510;-72
2023/10/06 17:23:01;;;;;;;13.20;6.33;;;;;;;;;;4917724;29;20415;-72
2023/10/06 17:25:28;;;;;;;14.43;5.97;;;;;;;;;;4917741;29;20414;-72
2023/10/06 17:27:54;;;;;;;16.43;6.93;;;;;;;;;;4916156;29;20426;-72
2023/10/06 17:30:20;;;;;;;16.50;6.90;;;;;;;;;;4917456;29;20419;-72
2023/10/06 17:32:47;;;;;;;13.03;5.77;;;;;;;;;;4917568;29;20445;-72
2023/10/06 17:35:17;;;;;;;16.07;7.30;;;;;;;;;;4917512;29;20426;-72
2023/10/06 17:37:43;;;;;;;13.33;6.33;;;;;;;;;;4917230;29;20466;-72
2023/10/06 17:40:13;;;;;;;13.90;6.63;;;;;;;;;;4917538;29;20546;-73
2023/10/06 17:42:46;;;;;;;11.50;5.77;;;;;;;;;;4917313;29;20406;-72
2023/10/06 17:45:12;;;;;;;17.90;7.60;;;;;;;;;;4917339;29;20435;-72
2023/10/06 17:47:38;;;;;;;16.90;6.57;;;;;;;;;;4916920;29;20415;-72
2023/10/06 17:50:04;;;;;;;19.87;7.47;;;;;;;;;;4917585;29;20418;-72
2023/10/06 17:52:30;;;;;;;18.87;6.47;;;;;;;;;;4917045;29;20435;-72
2023/10/06 17:54:57;;;;;;;14.27;6.97;;;;;;;;;;4918089;29;20812;-72
2023/10/06 17:57:23;;;;;;;16.10;6.90;;;;;;;;;;4935749;29;20405;-72
2023/10/06 17:59:52;;;;;;;15.33;6.70;;;;;;;;;;4936080;29;20786;-72
2023/10/06 18:02:18;;;;;;;13.93;6.90;;;;;;;;;;4935396;29;20828;-72
2023/10/06 18:04:46;;;;;;;12.00;6.83;;;;;;;;;;4936036;29;20461;-72
2023/10/06 18:07:13;;;;;;;13.70;6.30;;;;;;;;;;4934807;29;20905;-72
2023/10/06 18:09:39;;;;;;;16.90;6.70;;;;;;;;;;4935708;29;20784;-72
2023/10/06 18:12:08;;;;;;;14.50;5.70;;;;;;;;;;4933771;29;20446;-72
2023/10/06 18:14:35;;;;;;;19.43;8.00;;;;;;;;;;4935754;29;20456;-72
2023/10/06 18:17:01;;;;;;;14.60;6.87;;;;;;;;;;4935286;29;20972;-72
2023/10/06 18:19:27;;;;;;;19.93;7.50;;;;;;;;;;4935594;29;20886;-72
2023/10/06 18:21:54;;;;;;;17.30;7.87;;;;;;;;;;4935478;29;20488;-72
2023/10/06 18:24:21;;;;;;;19.17;7.17;;;;;;;;;;4935487;29;21090;-72
2023/10/06 18:26:48;;;;;;;14.87;7.33;;;;;;;;;;4935261;29;20929;-72
2023/10/06 18:29:14;;;;;;;15.43;7.27;;;;;;;;;;4935424;29;20963;-72
2023/10/06 18:31:40;;;;;;;22.00;10.17;;;;;;;;;;4928072;29;20537;-72
2023/10/06 18:34:06;;;;;;;20.90;9.80;;;;;;;;;;4923210;29;20436;-72
2023/10/06 18:36:32;;;;;;;26.23;8.57;;;;;;;;;;4919605;29;22043;-72
2023/10/06 18:38:58;;;;;;;16.63;7.43;;;;;;;;;;4930675;29;20568;-72
2023/10/06 18:41:26;;;;;;;17.40;7.27;;;;;;;;;;4935207;29;20844;-72
2023/10/06 18:43:52;;;;;;;17.60;7.80;;;;;;;;;;4935192;29;20929;-72
2023/10/06 18:46:21;;;;;;;15.00;6.83;;;;;;;;;;4934630;29;20409;-71
2023/10/06 18:48:47;;;;;;;18.53;8.03;;;;;;;;;;4935229;29;20424;-71
2023/10/06 18:51:14;;;;;;;16.03;7.10;;;;;;;;;;4935142;29;20746;-71
2023/10/06 18:53:40;;;;;;;13.67;7.40;;;;;;;;;;4935094;29;20452;-73
2023/10/06 18:56:07;;;;;;;12.90;7.17;;;;;;;;;;4935054;29;20457;-71
2023/10/06 18:58:33;;;;;;;19.03;7.10;;;;;;;;;;4934710;29;20493;-71
2023/10/06 19:00:59;;;;;;;16.27;6.33;;;;;;;;;;4934664;29;20449;-71
2023/10/06 19:03:28;;;;;;;19.30;7.00;;;;;;;;;;4934970;29;20406;-71
2023/10/06 19:06:02;;;;;;;15.97;7.70;;;;;;;;;;4929336;29;20540;-71
2023/10/06 19:08:33;;;;;;;23.50;7.47;;;;;;;;;;4916058;29;20442;-72
2023/10/06 19:10:59;;;;;;;32.90;8.10;;;;;;;;;;4915770;29;20873;-72
2023/10/06 19:13:25;;;;;;;18.27;7.43;;;;;;;;;;4915838;29;20506;-72
2023/10/06 19:15:52;;;;;;;17.67;8.73;;;;;;;;;;4915871;29;20462;-73
2023/10/06 19:18:18;;;;;;;17.00;8.10;;;;;;;;;;4915156;29;20890;-71
2023/10/06 19:20:47;;;;;;;19.20;7.83;;;;;;;;;;4915601;29;20458;-71
2023/10/06 19:23:13;;;;;;;18.57;8.20;;;;;;;;;;4915573;29;20922;-71
2023/10/06 19:25:45;;;;;;;20.70;8.00;;;;;;;;;;4915440;29;20418;-72
2023/10/06 19:28:11;;;;;;;22.33;8.20;;;;;;;;;;4915644;29;20775;-70
2023/10/06 19:30:40;;;;;;;17.27;7.90;;;;;;;;;;4915372;29;20435;-71
2023/10/06 19:33:07;;;;;;;20.37;9.03;;;;;;;;;;4915431;29;20410;-71
2023/10/06 19:35:38;;;;;;;14.90;7.50;;;;;;;;;;4915434;29;20410;-71
2023/10/06 19:38:04;;;;;;;16.77;8.70;;;;;;;;;;4915339;29;20462;-70
2023/10/06 19:40:30;;;;;;;19.13;8.53;;;;;;;;;;4915394;29;20489;-71
2023/10/06 19:42:55;;;;;;;23.60;9.70;;;;;;;;;;4915786;29;20849;-71
2023/10/06 19:45:21;;;;;;;22.87;8.97;;;;;;;;;;4915397;29;20783;-70